Waveland, Indiana
Current Conditions -  °F | °C
As of 4:55 PM on Friday 24 Oct 2014 (Local Time) from K4I7 Reporting Station
Scattered Clouds Scattered Clouds  
Wind Chill: 64°   Ceiling: Unl
Heat Index: 64°   Visibility: 10mi
Dew Point: 52°   Wind: 0mph
Humidity: 64%   Direction: NA
Pressure: 30.03"   Gusts: NA
Location:  39.88°N, 87.04°W
Report Text: K4I7 242055Z AUTO 00000KT 10SM SCT040 18/11 A3003 RMK AO2
Loading
Personal Weather Stations






























Interactive Weather Map New forecast layout! Learn more

10-Day Weather Forecast

Advertisements
Track Severe Weather on mobile